sensor_id;sensor_type;location;lat;lon;timestamp;P1;durP1;ratioP1;P2;durP2;ratioP2
5587;SDS011;2816;49.778;9.986;2023-08-30T00:01:57;8.53;;;2.17;;
5587;SDS011;2816;49.778;9.986;2023-08-30T00:04:24;5.10;;;2.10;;
5587;SDS011;2816;49.778;9.986;2023-08-30T00:06:51;5.40;;;2.33;;
5587;SDS011;2816;49.778;9.986;2023-08-30T00:09:18;2.70;;;2.40;;
5587;SDS011;2816;49.778;9.986;2023-08-30T00:11:46;3.17;;;2.50;;
5587;SDS011;2816;49.778;9.986;2023-08-30T00:14:13;3.73;;;2.73;;
5587;SDS011;2816;49.778;9.986;2023-08-30T00:16:40;3.33;;;2.30;;
5587;SDS011;2816;49.778;9.986;2023-08-30T00:19:07;3.03;;;2.27;;
5587;SDS011;2816;49.778;9.986;2023-08-30T00:21:34;3.07;;;2.33;;
5587;SDS011;2816;49.778;9.986;2023-08-30T00:24:01;3.90;;;1.87;;
5587;SDS011;2816;49.778;9.986;2023-08-30T00:26:28;4.60;;;2.30;;
5587;SDS011;2816;49.778;9.986;2023-08-30T00:28:56;2.30;;;2.10;;
5587;SDS011;2816;49.778;9.986;2023-08-30T00:31:23;3.80;;;2.20;;
5587;SDS011;2816;49.778;9.986;2023-08-30T00:33:50;2.57;;;2.10;;
5587;SDS011;2816;49.778;9.986;2023-08-30T00:36:17;2.47;;;2.27;;
5587;SDS011;2816;49.778;9.986;2023-08-30T00:38:44;4.00;;;2.33;;
5587;SDS011;2816;49.778;9.986;2023-08-30T00:41:11;2.37;;;2.17;;
5587;SDS011;2816;49.778;9.986;2023-08-30T00:43:38;4.10;;;2.43;;
5587;SDS011;2816;49.778;9.986;2023-08-30T00:46:07;2.50;;;2.30;;
5587;SDS011;2816;49.778;9.986;2023-08-30T00:48:34;7.43;;;2.40;;
5587;SDS011;2816;49.778;9.986;2023-08-30T00:51:01;4.40;;;2.33;;
5587;SDS011;2816;49.778;9.986;2023-08-30T00:53:27;3.80;;;2.77;;
5587;SDS011;2816;49.778;9.986;2023-08-30T00:55:54;2.90;;;2.10;;
5587;SDS011;2816;49.778;9.986;2023-08-30T00:58:21;4.00;;;2.20;;
5587;SDS011;2816;49.778;9.986;2023-08-30T01:00:51;7.60;;;2.20;;
5587;SDS011;2816;49.778;9.986;2023-08-30T01:03:21;2.20;;;2.00;;
5587;SDS011;2816;49.778;9.986;2023-08-30T01:05:48;6.57;;;2.27;;
5587;SDS011;2816;49.778;9.986;2023-08-30T01:08:15;2.33;;;2.20;;
5587;SDS011;2816;49.778;9.986;2023-08-30T01:10:44;2.33;;;2.13;;
5587;SDS011;2816;49.778;9.986;2023-08-30T01:13:19;2.00;;;1.83;;
5587;SDS011;2816;49.778;9.986;2023-08-30T01:15:47;4.00;;;2.20;;
5587;SDS011;2816;49.778;9.986;2023-08-30T01:18:16;2.63;;;1.77;;
5587;SDS011;2816;49.778;9.986;2023-08-30T01:20:47;2.10;;;1.90;;
5587;SDS011;2816;49.778;9.986;2023-08-30T01:23:19;3.73;;;1.80;;
5587;SDS011;2816;49.778;9.986;2023-08-30T01:25:53;2.30;;;2.10;;
5587;SDS011;2816;49.778;9.986;2023-08-30T01:28:30;6.40;;;2.80;;
5587;SDS011;2816;49.778;9.986;2023-08-30T01:30:59;2.63;;;2.40;;
5587;SDS011;2816;49.778;9.986;2023-08-30T01:33:26;4.13;;;2.27;;
5587;SDS011;2816;49.778;9.986;2023-08-30T01:35:57;2.20;;;2.00;;
5587;SDS011;2816;49.778;9.986;2023-08-30T01:38:25;3.30;;;2.80;;
5587;SDS011;2816;49.778;9.986;2023-08-30T01:40:54;3.13;;;2.83;;
5587;SDS011;2816;49.778;9.986;2023-08-30T01:43:23;2.73;;;2.50;;
5587;SDS011;2816;49.778;9.986;2023-08-30T01:45:55;2.60;;;2.40;;
5587;SDS011;2816;49.778;9.986;2023-08-30T01:48:24;5.53;;;2.73;;
5587;SDS011;2816;49.778;9.986;2023-08-30T01:50:52;2.50;;;2.30;;
5587;SDS011;2816;49.778;9.986;2023-08-30T01:53:23;2.60;;;2.30;;
5587;SDS011;2816;49.778;9.986;2023-08-30T01:55:51;2.60;;;2.40;;
5587;SDS011;2816;49.778;9.986;2023-08-30T01:58:18;2.40;;;2.20;;
5587;SDS011;2816;49.778;9.986;2023-08-30T02:00:45;2.70;;;2.37;;
5587;SDS011;2816;49.778;9.986;2023-08-30T02:03:14;2.70;;;2.50;;
5587;SDS011;2816;49.778;9.986;2023-08-30T02:05:43;2.50;;;2.33;;
5587;SDS011;2816;49.778;9.986;2023-08-30T02:08:18;2.87;;;2.33;;
5587;SDS011;2816;49.778;9.986;2023-08-30T02:10:48;2.90;;;2.60;;
5587;SDS011;2816;49.778;9.986;2023-08-30T02:13:21;6.87;;;2.80;;
5587;SDS011;2816;49.778;9.986;2023-08-30T02:15:51;6.00;;;2.60;;
5587;SDS011;2816;49.778;9.986;2023-08-30T02:18:22;3.27;;;2.97;;
5587;SDS011;2816;49.778;9.986;2023-08-30T02:20:50;3.07;;;2.87;;
5587;SDS011;2816;49.778;9.986;2023-08-30T02:23:17;8.47;;;3.10;;
5587;SDS011;2816;49.778;9.986;2023-08-30T02:25:44;4.50;;;3.00;;
5587;SDS011;2816;49.778;9.986;2023-08-30T02:28:11;2.60;;;2.40;;
5587;SDS011;2816;49.778;9.986;2023-08-30T02:30:38;5.90;;;2.77;;
5587;SDS011;2816;49.778;9.986;2023-08-30T02:33:05;3.00;;;2.17;;
5587;SDS011;2816;49.778;9.986;2023-08-30T02:35:33;3.83;;;2.73;;
5587;SDS011;2816;49.778;9.986;2023-08-30T02:38:00;4.20;;;3.13;;
5587;SDS011;2816;49.778;9.986;2023-08-30T02:40:29;2.63;;;2.43;;
5587;SDS011;2816;49.778;9.986;2023-08-30T02:42:56;2.87;;;2.63;;
5587;SDS011;2816;49.778;9.986;2023-08-30T02:45:23;3.20;;;2.83;;
5587;SDS011;2816;49.778;9.986;2023-08-30T02:47:50;2.67;;;2.47;;
5587;SDS011;2816;49.778;9.986;2023-08-30T02:50:21;3.20;;;2.90;;
5587;SDS011;2816;49.778;9.986;2023-08-30T02:52:49;4.00;;;3.27;;
5587;SDS011;2816;49.778;9.986;2023-08-30T02:55:16;3.90;;;3.20;;
5587;SDS011;2816;49.778;9.986;2023-08-30T02:57:43;5.77;;;2.83;;
5587;SDS011;2816;49.778;9.986;2023-08-30T03:00:11;3.70;;;3.40;;
5587;SDS011;2816;49.778;9.986;2023-08-30T03:02:39;4.50;;;3.17;;
5587;SDS011;2816;49.778;9.986;2023-08-30T03:05:06;3.00;;;2.80;;
5587;SDS011;2816;49.778;9.986;2023-08-30T03:07:33;3.50;;;3.20;;
5587;SDS011;2816;49.778;9.986;2023-08-30T03:10:02;4.27;;;3.50;;
5587;SDS011;2816;49.778;9.986;2023-08-30T03:12:29;2.90;;;2.70;;
5587;SDS011;2816;49.778;9.986;2023-08-30T03:14:56;5.63;;;3.57;;
5587;SDS011;2816;49.778;9.986;2023-08-30T03:17:23;4.20;;;3.50;;
5587;SDS011;2816;49.778;9.986;2023-08-30T03:19:51;4.30;;;3.07;;
5587;SDS011;2816;49.778;9.986;2023-08-30T03:22:18;5.70;;;3.10;;
5587;SDS011;2816;49.778;9.986;2023-08-30T03:24:46;5.50;;;3.10;;
5587;SDS011;2816;49.778;9.986;2023-08-30T03:27:15;3.70;;;3.37;;
5587;SDS011;2816;49.778;9.986;2023-08-30T03:29:44;3.80;;;3.00;;
5587;SDS011;2816;49.778;9.986;2023-08-30T03:32:14;4.13;;;3.73;;
5587;SDS011;2816;49.778;9.986;2023-08-30T03:34:43;4.40;;;3.80;;
5587;SDS011;2816;49.778;9.986;2023-08-30T03:37:10;4.00;;;3.70;;
5587;SDS011;2816;49.778;9.986;2023-08-30T03:39:37;5.07;;;3.43;;
5587;SDS011;2816;49.778;9.986;2023-08-30T03:42:04;3.97;;;3.53;;
5587;SDS011;2816;49.778;9.986;2023-08-30T03:44:33;3.20;;;3.00;;
5587;SDS011;2816;49.778;9.986;2023-08-30T03:47:00;5.30;;;3.13;;
5587;SDS011;2816;49.778;9.986;2023-08-30T03:49:27;5.57;;;3.33;;
5587;SDS011;2816;49.778;9.986;2023-08-30T03:51:54;6.00;;;3.20;;
5587;SDS011;2816;49.778;9.986;2023-08-30T03:54:21;4.30;;;2.90;;
5587;SDS011;2816;49.778;9.986;2023-08-30T03:56:48;4.30;;;2.90;;
5587;SDS011;2816;49.778;9.986;2023-08-30T03:59:15;3.90;;;3.50;;
5587;SDS011;2816;49.778;9.986;2023-08-30T04:01:43;3.17;;;2.97;;
5587;SDS011;2816;49.778;9.986;2023-08-30T04:04:11;3.10;;;2.90;;
5587;SDS011;2816;49.778;9.986;2023-08-30T04:06:38;3.40;;;3.00;;
5587;SDS011;2816;49.778;9.986;2023-08-30T04:09:05;4.07;;;3.00;;
5587;SDS011;2816;49.778;9.986;2023-08-30T04:11:32;6.70;;;3.47;;
5587;SDS011;2816;49.778;9.986;2023-08-30T04:13:59;3.17;;;2.80;;
5587;SDS011;2816;49.778;9.986;2023-08-30T04:16:27;2.73;;;2.53;;
5587;SDS011;2816;49.778;9.986;2023-08-30T04:18:55;2.73;;;2.50;;
5587;SDS011;2816;49.778;9.986;2023-08-30T04:21:22;6.00;;;3.73;;
5587;SDS011;2816;49.778;9.986;2023-08-30T04:23:49;4.80;;;3.03;;
5587;SDS011;2816;49.778;9.986;2023-08-30T04:26:16;2.73;;;2.53;;
5587;SDS011;2816;49.778;9.986;2023-08-30T04:28:43;2.90;;;2.60;;
5587;SDS011;2816;49.778;9.986;2023-08-30T04:31:10;3.17;;;2.80;;
5587;SDS011;2816;49.778;9.986;2023-08-30T04:33:37;3.57;;;2.90;;
5587;SDS011;2816;49.778;9.986;2023-08-30T04:36:06;3.33;;;3.03;;
5587;SDS011;2816;49.778;9.986;2023-08-30T04:38:33;3.30;;;3.00;;
5587;SDS011;2816;49.778;9.986;2023-08-30T04:41:00;3.47;;;3.00;;
5587;SDS011;2816;49.778;9.986;2023-08-30T04:43:27;10.37;;;3.20;;
5587;SDS011;2816;49.778;9.986;2023-08-30T04:45:54;4.90;;;3.23;;
5587;SDS011;2816;49.778;9.986;2023-08-30T04:48:21;7.20;;;4.20;;
5587;SDS011;2816;49.778;9.986;2023-08-30T04:50:49;9.40;;;4.20;;
5587;SDS011;2816;49.778;9.986;2023-08-30T04:53:25;4.30;;;3.60;;
5587;SDS011;2816;49.778;9.986;2023-08-30T04:55:52;6.70;;;4.33;;
5587;SDS011;2816;49.778;9.986;2023-08-30T04:58:19;4.30;;;3.90;;
5587;SDS011;2816;49.778;9.986;2023-08-30T05:00:45;4.63;;;3.73;;
5587;SDS011;2816;49.778;9.986;2023-08-30T05:03:12;6.60;;;4.10;;
5587;SDS011;2816;49.778;9.986;2023-08-30T05:05:39;6.90;;;3.93;;
5587;SDS011;2816;49.778;9.986;2023-08-30T05:08:10;5.00;;;4.40;;
5587;SDS011;2816;49.778;9.986;2023-08-30T05:10:39;4.67;;;4.10;;
5587;SDS011;2816;49.778;9.986;2023-08-30T05:13:08;4.67;;;3.63;;
5587;SDS011;2816;49.778;9.986;2023-08-30T05:15:35;4.60;;;3.70;;
5587;SDS011;2816;49.778;9.986;2023-08-30T05:18:02;5.33;;;3.53;;
5587;SDS011;2816;49.778;9.986;2023-08-30T05:20:29;3.40;;;3.10;;
5587;SDS011;2816;49.778;9.986;2023-08-30T05:22:56;5.60;;;3.30;;
5587;SDS011;2816;49.778;9.986;2023-08-30T05:25:23;5.20;;;3.57;;
5587;SDS011;2816;49.778;9.986;2023-08-30T05:27:51;3.73;;;3.43;;
5587;SDS011;2816;49.778;9.986;2023-08-30T05:30:18;3.47;;;2.80;;
5587;SDS011;2816;49.778;9.986;2023-08-30T05:32:45;10.43;;;3.87;;
5587;SDS011;2816;49.778;9.986;2023-08-30T05:35:12;4.20;;;3.83;;
5587;SDS011;2816;49.778;9.986;2023-08-30T05:37:38;8.80;;;3.70;;
5587;SDS011;2816;49.778;9.986;2023-08-30T05:40:06;4.43;;;3.70;;
5587;SDS011;2816;49.778;9.986;2023-08-30T05:42:33;6.63;;;4.70;;
5587;SDS011;2816;49.778;9.986;2023-08-30T05:45:02;7.90;;;4.10;;
5587;SDS011;2816;49.778;9.986;2023-08-30T05:47:29;6.53;;;3.80;;
5587;SDS011;2816;49.778;9.986;2023-08-30T05:49:56;4.73;;;3.87;;
5587;SDS011;2816;49.778;9.986;2023-08-30T05:52:23;4.83;;;4.43;;
5587;SDS011;2816;49.778;9.986;2023-08-30T05:54:51;4.40;;;3.73;;
5587;SDS011;2816;49.778;9.986;2023-08-30T05:57:18;3.40;;;3.10;;
5587;SDS011;2816;49.778;9.986;2023-08-30T05:59:47;2.93;;;2.70;;
5587;SDS011;2816;49.778;9.986;2023-08-30T06:02:15;2.87;;;2.67;;
5587;SDS011;2816;49.778;9.986;2023-08-30T06:04:42;5.27;;;3.97;;
5587;SDS011;2816;49.778;9.986;2023-08-30T06:07:09;5.60;;;5.10;;
5587;SDS011;2816;49.778;9.986;2023-08-30T06:09:36;4.13;;;3.70;;
5587;SDS011;2816;49.778;9.986;2023-08-30T06:12:04;7.17;;;6.47;;
5587;SDS011;2816;49.778;9.986;2023-08-30T06:14:31;10.37;;;7.07;;
5587;SDS011;2816;49.778;9.986;2023-08-30T06:16:58;8.67;;;7.77;;
5587;SDS011;2816;49.778;9.986;2023-08-30T06:19:27;10.07;;;8.70;;
5587;SDS011;2816;49.778;9.986;2023-08-30T06:21:54;11.13;;;7.33;;
5587;SDS011;2816;49.778;9.986;2023-08-30T06:24:21;8.53;;;7.73;;
5587;SDS011;2816;49.778;9.986;2023-08-30T06:26:48;10.73;;;9.17;;
5587;SDS011;2816;49.778;9.986;2023-08-30T06:29:15;11.50;;;9.07;;
5587;SDS011;2816;49.778;9.986;2023-08-30T06:31:43;10.00;;;7.60;;
5587;SDS011;2816;49.778;9.986;2023-08-30T06:34:11;10.73;;;9.60;;
5587;SDS011;2816;49.778;9.986;2023-08-30T06:36:39;8.43;;;6.03;;
5587;SDS011;2816;49.778;9.986;2023-08-30T06:39:06;13.97;;;8.77;;
5587;SDS011;2816;49.778;9.986;2023-08-30T06:41:33;10.27;;;8.27;;
5587;SDS011;2816;49.778;9.986;2023-08-30T06:43:59;13.30;;;9.20;;
5587;SDS011;2816;49.778;9.986;2023-08-30T06:46:26;5.80;;;5.30;;
5587;SDS011;2816;49.778;9.986;2023-08-30T06:48:53;13.00;;;8.70;;
5587;SDS011;2816;49.778;9.986;2023-08-30T06:51:20;9.97;;;9.03;;
5587;SDS011;2816;49.778;9.986;2023-08-30T06:53:48;11.40;;;9.57;;
5587;SDS011;2816;49.778;9.986;2023-08-30T06:56:15;7.90;;;7.07;;
5587;SDS011;2816;49.778;9.986;2023-08-30T06:58:42;10.80;;;9.70;;
5587;SDS011;2816;49.778;9.986;2023-08-30T07:01:09;10.43;;;8.83;;
5587;SDS011;2816;49.778;9.986;2023-08-30T07:03:36;12.07;;;10.80;;
5587;SDS011;2816;49.778;9.986;2023-08-30T07:06:05;6.83;;;6.13;;
5587;SDS011;2816;49.778;9.986;2023-08-30T07:08:32;7.87;;;6.87;;
5587;SDS011;2816;49.778;9.986;2023-08-30T07:11:00;7.03;;;6.33;;
5587;SDS011;2816;49.778;9.986;2023-08-30T07:13:27;11.87;;;9.37;;
5587;SDS011;2816;49.778;9.986;2023-08-30T07:15:54;10.47;;;8.40;;
5587;SDS011;2816;49.778;9.986;2023-08-30T07:18:21;11.63;;;9.00;;
5587;SDS011;2816;49.778;9.986;2023-08-30T07:20:48;10.17;;;9.07;;
5587;SDS011;2816;49.778;9.986;2023-08-30T07:23:15;7.93;;;7.13;;
5587;SDS011;2816;49.778;9.986;2023-08-30T07:25:42;9.03;;;7.40;;
5587;SDS011;2816;49.778;9.986;2023-08-30T07:28:10;10.77;;;7.93;;
5587;SDS011;2816;49.778;9.986;2023-08-30T07:30:37;15.73;;;13.97;;
5587;SDS011;2816;49.778;9.986;2023-08-30T07:33:04;8.00;;;7.20;;
5587;SDS011;2816;49.778;9.986;2023-08-30T07:35:31;19.47;;;14.00;;
5587;SDS011;2816;49.778;9.986;2023-08-30T07:37:58;10.23;;;8.97;;
5587;SDS011;2816;49.778;9.986;2023-08-30T07:40:26;16.47;;;13.03;;
5587;SDS011;2816;49.778;9.986;2023-08-30T07:42:54;19.03;;;11.37;;
5587;SDS011;2816;49.778;9.986;2023-08-30T07:45:22;15.63;;;12.47;;
5587;SDS011;2816;49.778;9.986;2023-08-30T07:47:49;12.90;;;11.37;;
5587;SDS011;2816;49.778;9.986;2023-08-30T07:50:16;12.30;;;9.67;;
5587;SDS011;2816;49.778;9.986;2023-08-30T07:52:43;13.40;;;10.07;;
5587;SDS011;2816;49.778;9.986;2023-08-30T07:55:11;8.87;;;7.80;;
5587;SDS011;2816;49.778;9.986;2023-08-30T07:57:38;14.97;;;11.97;;
5587;SDS011;2816;49.778;9.986;2023-08-30T08:00:07;13.60;;;11.10;;
5587;SDS011;2816;49.778;9.986;2023-08-30T08:02:36;15.80;;;13.67;;
5587;SDS011;2816;49.778;9.986;2023-08-30T08:05:03;13.40;;;9.60;;
5587;SDS011;2816;49.778;9.986;2023-08-30T08:07:31;15.03;;;12.93;;
5587;SDS011;2816;49.778;9.986;2023-08-30T08:09:58;9.63;;;8.50;;
5587;SDS011;2816;49.778;9.986;2023-08-30T08:12:25;13.90;;;10.70;;
5587;SDS011;2816;49.778;9.986;2023-08-30T08:14:52;15.70;;;9.83;;
5587;SDS011;2816;49.778;9.986;2023-08-30T08:17:19;9.67;;;8.67;;
5587;SDS011;2816;49.778;9.986;2023-08-30T08:19:47;18.57;;;13.40;;
5587;SDS011;2816;49.778;9.986;2023-08-30T08:22:14;14.77;;;10.43;;
5587;SDS011;2816;49.778;9.986;2023-08-30T08:24:41;16.50;;;14.00;;
5587;SDS011;2816;49.778;9.986;2023-08-30T08:27:11;17.90;;;11.80;;
5587;SDS011;2816;49.778;9.986;2023-08-30T08:29:38;15.23;;;12.87;;
5587;SDS011;2816;49.778;9.986;2023-08-30T08:32:05;11.20;;;10.00;;
5587;SDS011;2816;49.778;9.986;2023-08-30T08:34:32;13.50;;;10.30;;
5587;SDS011;2816;49.778;9.986;2023-08-30T08:37:00;13.93;;;12.43;;
5587;SDS011;2816;49.778;9.986;2023-08-30T08:39:27;16.40;;;13.20;;
5587;SDS011;2816;49.778;9.986;2023-08-30T08:41:54;15.33;;;12.60;;
5587;SDS011;2816;49.778;9.986;2023-08-30T08:44:21;11.77;;;10.03;;
5587;SDS011;2816;49.778;9.986;2023-08-30T08:46:52;10.80;;;9.37;;
5587;SDS011;2816;49.778;9.986;2023-08-30T08:49:19;10.47;;;9.37;;
5587;SDS011;2816;49.778;9.986;2023-08-30T08:51:46;13.50;;;11.70;;
5587;SDS011;2816;49.778;9.986;2023-08-30T08:54:14;12.43;;;9.10;;
5587;SDS011;2816;49.778;9.986;2023-08-30T08:56:42;9.60;;;8.60;;
5587;SDS011;2816;49.778;9.986;2023-08-30T08:59:09;17.53;;;11.67;;
5587;SDS011;2816;49.778;9.986;2023-08-30T09:01:36;17.80;;;11.80;;
5587;SDS011;2816;49.778;9.986;2023-08-30T09:04:05;12.67;;;10.80;;
5587;SDS011;2816;49.778;9.986;2023-08-30T09:06:33;11.93;;;10.30;;
5587;SDS011;2816;49.778;9.986;2023-08-30T09:09:00;14.03;;;11.97;;
5587;SDS011;2816;49.778;9.986;2023-08-30T09:11:29;12.57;;;9.37;;
5587;SDS011;2816;49.778;9.986;2023-08-30T09:13:56;13.90;;;10.70;;
5587;SDS011;2816;49.778;9.986;2023-08-30T09:16:23;14.67;;;11.70;;
5587;SDS011;2816;49.778;9.986;2023-08-30T09:18:56;11.30;;;10.20;;
5587;SDS011;2816;49.778;9.986;2023-08-30T09:21:25;18.50;;;14.20;;
5587;SDS011;2816;49.778;9.986;2023-08-30T09:23:59;14.03;;;11.60;;
5587;SDS011;2816;49.778;9.986;2023-08-30T09:26:26;16.90;;;13.83;;
5587;SDS011;2816;49.778;9.986;2023-08-30T09:28:55;14.27;;;11.87;;
5587;SDS011;2816;49.778;9.986;2023-08-30T09:31:22;17.10;;;13.87;;
5587;SDS011;2816;49.778;9.986;2023-08-30T09:33:49;15.60;;;10.10;;
5587;SDS011;2816;49.778;9.986;2023-08-30T09:36:18;12.77;;;10.90;;
5587;SDS011;2816;49.778;9.986;2023-08-30T09:38:48;14.60;;;11.60;;
5587;SDS011;2816;49.778;9.986;2023-08-30T09:41:16;12.87;;;10.23;;
5587;SDS011;2816;49.778;9.986;2023-08-30T09:43:43;13.23;;;11.83;;
5587;SDS011;2816;49.778;9.986;2023-08-30T09:46:13;14.40;;;12.40;;
5587;SDS011;2816;49.778;9.986;2023-08-30T09:48:40;14.67;;;12.67;;
5587;SDS011;2816;49.778;9.986;2023-08-30T09:51:08;17.23;;;12.50;;
5587;SDS011;2816;49.778;9.986;2023-08-30T09:53:38;14.63;;;10.00;;
5587;SDS011;2816;49.778;9.986;2023-08-30T09:56:10;10.67;;;9.57;;
5587;SDS011;2816;49.778;9.986;2023-08-30T09:58:39;11.70;;;8.63;;
5587;SDS011;2816;49.778;9.986;2023-08-30T10:01:07;10.30;;;8.80;;
5587;SDS011;2816;49.778;9.986;2023-08-30T10:03:36;8.67;;;7.77;;
5587;SDS011;2816;49.778;9.986;2023-08-30T10:06:03;9.97;;;7.87;;
5587;SDS011;2816;49.778;9.986;2023-08-30T10:08:31;9.50;;;7.77;;
5587;SDS011;2816;49.778;9.986;2023-08-30T10:11:02;9.10;;;7.40;;
5587;SDS011;2816;49.778;9.986;2023-08-30T10:13:30;12.87;;;9.87;;
5587;SDS011;2816;49.778;9.986;2023-08-30T10:16:01;8.73;;;6.90;;
5587;SDS011;2816;49.778;9.986;2023-08-30T10:18:31;11.87;;;8.70;;
5587;SDS011;2816;49.778;9.986;2023-08-30T10:21:01;12.07;;;8.50;;
5587;SDS011;2816;49.778;9.986;2023-08-30T10:23:31;11.43;;;8.97;;
5587;SDS011;2816;49.778;9.986;2023-08-30T10:25:59;8.37;;;6.97;;
5587;SDS011;2816;49.778;9.986;2023-08-30T10:28:28;8.07;;;6.80;;
5587;SDS011;2816;49.778;9.986;2023-08-30T10:30:56;7.50;;;5.87;;
5587;SDS011;2816;49.778;9.986;2023-08-30T10:33:24;6.07;;;5.47;;
5587;SDS011;2816;49.778;9.986;2023-08-30T10:35:51;8.93;;;6.90;;
5587;SDS011;2816;49.778;9.986;2023-08-30T10:38:28;6.27;;;5.43;;
5587;SDS011;2816;49.778;9.986;2023-08-30T10:40:55;9.33;;;4.80;;
5587;SDS011;2816;49.778;9.986;2023-08-30T10:43:33;5.60;;;4.77;;
5587;SDS011;2816;49.778;9.986;2023-08-30T10:46:01;5.40;;;4.43;;
5587;SDS011;2816;49.778;9.986;2023-08-30T10:48:35;7.60;;;5.23;;
5587;SDS011;2816;49.778;9.986;2023-08-30T10:51:02;6.20;;;5.60;;
5587;SDS011;2816;49.778;9.986;2023-08-30T10:53:32;7.10;;;4.70;;
5587;SDS011;2816;49.778;9.986;2023-08-30T10:56:11;5.33;;;4.70;;
5587;SDS011;2816;49.778;9.986;2023-08-30T10:58:41;5.60;;;4.27;;
5587;SDS011;2816;49.778;9.986;2023-08-30T11:01:10;4.73;;;4.17;;
5587;SDS011;2816;49.778;9.986;2023-08-30T11:03:38;5.87;;;4.13;;
5587;SDS011;2816;49.778;9.986;2023-08-30T11:06:06;5.17;;;3.97;;
5587;SDS011;2816;49.778;9.986;2023-08-30T11:08:34;4.93;;;3.70;;
5587;SDS011;2816;49.778;9.986;2023-08-30T11:11:05;4.83;;;3.90;;
5587;SDS011;2816;49.778;9.986;2023-08-30T11:13:35;4.03;;;3.47;;
5587;SDS011;2816;49.778;9.986;2023-08-30T11:16:03;4.63;;;4.20;;
5587;SDS011;2816;49.778;9.986;2023-08-30T11:18:30;3.40;;;3.10;;
5587;SDS011;2816;49.778;9.986;2023-08-30T11:21:02;5.03;;;4.40;;
5587;SDS011;2816;49.778;9.986;2023-08-30T11:23:29;3.87;;;3.50;;
5587;SDS011;2816;49.778;9.986;2023-08-30T11:25:58;4.10;;;3.50;;
5587;SDS011;2816;49.778;9.986;2023-08-30T11:28:25;4.30;;;3.70;;
5587;SDS011;2816;49.778;9.986;2023-08-30T11:30:53;3.53;;;3.10;;
5587;SDS011;2816;49.778;9.986;2023-08-30T11:33:20;6.10;;;3.60;;
5587;SDS011;2816;49.778;9.986;2023-08-30T11:35:48;5.30;;;4.00;;
5587;SDS011;2816;49.778;9.986;2023-08-30T11:38:17;4.10;;;3.70;;
5587;SDS011;2816;49.778;9.986;2023-08-30T11:40:44;4.20;;;3.87;;
5587;SDS011;2816;49.778;9.986;2023-08-30T11:43:13;4.80;;;3.23;;
5587;SDS011;2816;49.778;9.986;2023-08-30T11:45:41;3.60;;;3.30;;
5587;SDS011;2816;49.778;9.986;2023-08-30T11:48:09;5.43;;;3.43;;
5587;SDS011;2816;49.778;9.986;2023-08-30T11:50:36;11.00;;;4.10;;
5587;SDS011;2816;49.778;9.986;2023-08-30T11:53:03;5.00;;;3.33;;
5587;SDS011;2816;49.778;9.986;2023-08-30T11:55:31;4.33;;;3.93;;
5587;SDS011;2816;49.778;9.986;2023-08-30T11:57:58;4.07;;;3.77;;
5587;SDS011;2816;49.778;9.986;2023-08-30T12:00:26;6.90;;;4.00;;
5587;SDS011;2816;49.778;9.986;2023-08-30T12:02:53;6.23;;;3.13;;
5587;SDS011;2816;49.778;9.986;2023-08-30T12:05:20;3.53;;;3.20;;
5587;SDS011;2816;49.778;9.986;2023-08-30T12:07:48;2.70;;;2.50;;
5587;SDS011;2816;49.778;9.986;2023-08-30T12:10:17;4.07;;;2.90;;
5587;SDS011;2816;49.778;9.986;2023-08-30T12:12:44;3.90;;;3.00;;
5587;SDS011;2816;49.778;9.986;2023-08-30T12:15:11;5.07;;;3.30;;
5587;SDS011;2816;49.778;9.986;2023-08-30T12:17:41;3.20;;;2.90;;
5587;SDS011;2816;49.778;9.986;2023-08-30T12:20:14;3.93;;;3.40;;
5587;SDS011;2816;49.778;9.986;2023-08-30T12:22:42;3.53;;;3.23;;
5587;SDS011;2816;49.778;9.986;2023-08-30T12:25:15;3.67;;;3.37;;
5587;SDS011;2816;49.778;9.986;2023-08-30T12:27:43;3.40;;;2.90;;
5587;SDS011;2816;49.778;9.986;2023-08-30T12:30:10;4.53;;;3.00;;
5587;SDS011;2816;49.778;9.986;2023-08-30T12:32:38;3.20;;;2.90;;
5587;SDS011;2816;49.778;9.986;2023-08-30T12:35:07;3.43;;;3.13;;
5587;SDS011;2816;49.778;9.986;2023-08-30T12:37:34;3.23;;;2.93;;
5587;SDS011;2816;49.778;9.986;2023-08-30T12:40:01;3.30;;;3.00;;
5587;SDS011;2816;49.778;9.986;2023-08-30T12:42:28;3.93;;;2.70;;
5587;SDS011;2816;49.778;9.986;2023-08-30T12:44:55;2.90;;;2.70;;
5587;SDS011;2816;49.778;9.986;2023-08-30T12:47:22;3.10;;;2.90;;
5587;SDS011;2816;49.778;9.986;2023-08-30T12:49:49;3.80;;;2.87;;
5587;SDS011;2816;49.778;9.986;2023-08-30T12:52:17;4.17;;;2.97;;
5587;SDS011;2816;49.778;9.986;2023-08-30T12:54:44;4.23;;;2.80;;
5587;SDS011;2816;49.778;9.986;2023-08-30T12:57:13;3.53;;;2.30;;
5587;SDS011;2816;49.778;9.986;2023-08-30T12:59:39;3.13;;;2.80;;
5587;SDS011;2816;49.778;9.986;2023-08-30T13:02:06;3.03;;;2.60;;
5587;SDS011;2816;49.778;9.986;2023-08-30T13:04:33;2.90;;;2.70;;
5587;SDS011;2816;49.778;9.986;2023-08-30T13:07:02;3.13;;;2.93;;
5587;SDS011;2816;49.778;9.986;2023-08-30T13:09:31;3.03;;;2.83;;
5587;SDS011;2816;49.778;9.986;2023-08-30T13:11:58;5.30;;;3.30;;
5587;SDS011;2816;49.778;9.986;2023-08-30T13:14:25;3.87;;;3.03;;
5587;SDS011;2816;49.778;9.986;2023-08-30T13:16:52;5.30;;;3.43;;
5587;SDS011;2816;49.778;9.986;2023-08-30T13:19:19;2.83;;;2.63;;
5587;SDS011;2816;49.778;9.986;2023-08-30T13:21:45;3.20;;;2.77;;
5587;SDS011;2816;49.778;9.986;2023-08-30T13:24:12;3.23;;;2.87;;
5587;SDS011;2816;49.778;9.986;2023-08-30T13:26:40;3.10;;;2.63;;
5587;SDS011;2816;49.778;9.986;2023-08-30T13:29:07;3.73;;;3.00;;
5587;SDS011;2816;49.778;9.986;2023-08-30T13:31:34;5.23;;;2.53;;
5587;SDS011;2816;49.778;9.986;2023-08-30T13:34:01;2.70;;;2.50;;
5587;SDS011;2816;49.778;9.986;2023-08-30T13:36:29;5.13;;;2.67;;
5587;SDS011;2816;49.778;9.986;2023-08-30T13:38:55;5.00;;;2.70;;
5587;SDS011;2816;49.778;9.986;2023-08-30T13:41:23;4.73;;;2.90;;
5587;SDS011;2816;49.778;9.986;2023-08-30T13:43:51;3.23;;;2.33;;
5587;SDS011;2816;49.778;9.986;2023-08-30T13:46:18;3.57;;;2.43;;
5587;SDS011;2816;49.778;9.986;2023-08-30T13:48:45;2.87;;;2.67;;
5587;SDS011;2816;49.778;9.986;2023-08-30T13:51:13;3.50;;;2.40;;
5587;SDS011;2816;49.778;9.986;2023-08-30T13:53:40;2.63;;;2.03;;
5587;SDS011;2816;49.778;9.986;2023-08-30T13:56:06;3.57;;;2.53;;
5587;SDS011;2816;49.778;9.986;2023-08-30T13:58:33;2.80;;;2.57;;
5587;SDS011;2816;49.778;9.986;2023-08-30T14:01:03;5.57;;;2.47;;
5587;SDS011;2816;49.778;9.986;2023-08-30T14:03:30;2.63;;;2.37;;
5587;SDS011;2816;49.778;9.986;2023-08-30T14:05:57;4.60;;;2.67;;
5587;SDS011;2816;49.778;9.986;2023-08-30T14:08:24;6.37;;;2.60;;
5587;SDS011;2816;49.778;9.986;2023-08-30T14:10:51;6.30;;;2.57;;
5587;SDS011;2816;49.778;9.986;2023-08-30T14:13:19;2.60;;;2.40;;
5587;SDS011;2816;49.778;9.986;2023-08-30T14:15:46;9.60;;;2.40;;
5587;SDS011;2816;49.778;9.986;2023-08-30T14:18:15;2.60;;;2.20;;
5587;SDS011;2816;49.778;9.986;2023-08-30T14:20:42;2.70;;;1.90;;
5587;SDS011;2816;49.778;9.986;2023-08-30T14:23:10;5.37;;;2.10;;
5587;SDS011;2816;49.778;9.986;2023-08-30T14:25:37;3.40;;;2.00;;
5587;SDS011;2816;49.778;9.986;2023-08-30T14:28:04;3.60;;;1.93;;
5587;SDS011;2816;49.778;9.986;2023-08-30T14:30:31;3.20;;;1.90;;
5587;SDS011;2816;49.778;9.986;2023-08-30T14:32:58;2.03;;;1.83;;
5587;SDS011;2816;49.778;9.986;2023-08-30T14:35:26;2.30;;;2.07;;
5587;SDS011;2816;49.778;9.986;2023-08-30T14:37:54;3.93;;;1.70;;
5587;SDS011;2816;49.778;9.986;2023-08-30T14:40:21;1.73;;;1.63;;
5587;SDS011;2816;49.778;9.986;2023-08-30T14:42:48;3.03;;;1.70;;
5587;SDS011;2816;49.778;9.986;2023-08-30T14:45:15;1.63;;;1.53;;
5587;SDS011;2816;49.778;9.986;2023-08-30T14:47:42;3.53;;;1.80;;
5587;SDS011;2816;49.778;9.986;2023-08-30T14:50:09;1.43;;;1.33;;
5587;SDS011;2816;49.778;9.986;2023-08-30T14:52:38;2.30;;;1.80;;
5587;SDS011;2816;49.778;9.986;2023-08-30T14:55:05;1.60;;;1.50;;
5587;SDS011;2816;49.778;9.986;2023-08-30T14:57:33;1.97;;;1.43;;
5587;SDS011;2816;49.778;9.986;2023-08-30T15:00:00;2.87;;;1.60;;
5587;SDS011;2816;49.778;9.986;2023-08-30T15:02:26;1.50;;;1.40;;
5587;SDS011;2816;49.778;9.986;2023-08-30T15:04:56;1.80;;;1.70;;
5587;SDS011;2816;49.778;9.986;2023-08-30T15:07:22;2.97;;;1.43;;
5587;SDS011;2816;49.778;9.986;2023-08-30T15:09:51;1.50;;;1.40;;
5587;SDS011;2816;49.778;9.986;2023-08-30T15:12:18;1.50;;;1.40;;
5587;SDS011;2816;49.778;9.986;2023-08-30T15:14:45;1.50;;;1.40;;